Pagrindinis puslapis
METAR-TAF:

METAR-TAF

Oro uostai :

Rojetas, Tailandas

platuma: 16-07-00N, ilguma: 103-46-26E, Aukštis: 138 m

Dabartinis oras

Ataskaita buvo paskelbta 34 minutes, ne 22:00 UTC
Vėjas 4 kt iš Šiaurės/Šiaurės Rytų
Temperatūra 18°C
Drėgmė 88%
Slėgis 1015 hPa
Matomumas: 9000 m

METAR: VTUV 292200Z 02004KT 9000 NSC 18/16 Q1015 NOSIG

Laikas: 05:34 (22:34 UTC)

Prognozė

Ataskaita buvo paskelbta 5 valandos ir 34 minutes, ne 17:00 UTC
Prognozė galioja nuo 29 metu 18 UTC su 30 metu 18 UTC
Vėjas 10 kt iš Šiaurės Rytų
Matomumas 10 km arba daugiau
Mažai debesys ne aukštis 4000 ft

TAF: VTUV 291700Z 2918/3018 05010KT 9999 FEW040

Orai ataskaitas ir orų prognozės (METAR, TAF).

turimą stotys yra geltonos ir raudonos taškus žemėlapyje.

Perkelti pele per norėdami pamatyti stoties vardą.

Tada spustelėkite, norėdami matyti oro stebėjimo ir prognozės.

Norėdami pakeisti žemėlapį: spustelėkite ant žalios mygtukų su juodo kryžiaus žemyn,; žalią mygtuką su brūkšneliu, jei norite nutolinti; arba žalių rodyklių gretimoms žemėlapius.


METAR-TAF: